Time;durP1;ratioP1;P1;durP2;ratioP2;P2;SDS_P1;SDS_P2;PMS_P1;PMS_P2;Temp;Humidity;BMP_temperature;BMP_pressure;BME280_temperature;BME280_humidity;BME280_pressure;Samples;Min_cycle;Max_cycle;Signal;HPM_P1;HPM_P2
2022/01/18 00:00:07;;;;;;;;;;;7.20;93.60;;;;;;5080143;28;20344;-60
2022/01/18 00:02:32;;;;;;;;;;;7.20;93.60;;;;;;5087981;28;19920;-60
2022/01/18 00:04:58;;;;;;;;;;;7.20;93.60;;;;;;5082759;28;19926;-60
2022/01/18 00:07:23;;;;;;;;;;;7.20;93.60;;;;;;5066289;28;19916;-60
2022/01/18 00:09:49;;;;;;;;;;;7.20;93.60;;;;;;5081787;28;19918;-60
2022/01/18 00:15:29;;;;;;;;;;;7.10;93.60;;;;;;5084123;28;19958;-60
2022/01/18 00:23:18;;;;;;;;;;;7.10;93.80;;;;;;5034864;28;19912;-60
2022/01/18 00:25:48;;;;;;;;;;;7.00;93.50;;;;;;5072094;28;19919;-60
2022/01/18 00:28:13;;;;;;;;;;;7.00;93.50;;;;;;5080031;28;19912;-60
2022/01/18 00:35:44;;;;;;;;;;;7.00;93.50;;;;;;5078474;28;19916;-60
2022/01/18 00:38:28;;;;;;;;;;;7.00;93.50;;;;;;5078770;28;20021;-60
2022/01/18 00:40:54;;;;;;;;;;;7.00;93.50;;;;;;5077509;28;19915;-60
2022/01/18 00:43:19;;;;;;;;;;;7.00;93.50;;;;;;5086497;28;19927;-59
2022/01/18 00:45:45;;;;;;;;;;;7.00;93.50;;;;;;5073217;28;19908;-60
2022/01/18 00:48:11;;;;;;;;;;;6.90;93.40;;;;;;5085489;28;19920;-60
2022/01/18 00:50:37;;;;;;;;;;;6.90;93.40;;;;;;5077791;28;20011;-60
2022/01/18 00:53:06;;;;;;;;;;;6.90;93.50;;;;;;5083751;28;20073;-60
2022/01/18 00:55:36;;;;;;;;;;;6.90;93.40;;;;;;5073562;28;19923;-60
2022/01/18 00:58:01;;;;;;;;;;;6.90;93.40;;;;;;5083193;28;19923;-60
2022/01/18 01:00:27;;;;;;;;;;;6.90;93.40;;;;;;5077889;28;19909;-60
2022/01/18 01:02:52;;;;;;;;;;;6.80;93.30;;;;;;5101798;27;19924;-60
2022/01/18 01:05:17;;;;;;;;;;;6.80;93.40;;;;;;5086539;28;20291;-60
2022/01/18 01:07:43;;;;;;;;;;;6.80;93.40;;;;;;5074566;28;19956;-60
2022/01/18 01:10:08;;;;;;;;;;;6.80;93.40;;;;;;5063693;28;19916;-60
2022/01/18 01:12:34;;;;;;;;;;;6.70;93.40;;;;;;5067731;28;20297;-60
2022/01/18 01:15:07;;;;;;;;;;;6.70;93.40;;;;;;5070705;28;19961;-60
2022/01/18 01:41:49;;;;;;;;;;;6.60;93.30;;;;;;5087237;28;20322;-60
2022/01/18 01:46:41;;;;;;;;;;;6.60;93.30;;;;;;5091578;28;19916;-60
2022/01/18 01:49:12;;;;;;;;;;;6.50;93.30;;;;;;5072593;28;19915;-60
2022/01/18 01:51:37;;;;;;;;;;;6.50;93.40;;;;;;5074504;28;20010;-60
2022/01/18 01:54:07;;;;;;;;;;;6.50;93.40;;;;;;5080240;28;20678;-60
2022/01/18 01:56:32;;;;;;;;;;;6.50;93.30;;;;;;5072040;28;19922;-60
2022/01/18 01:58:58;;;;;;;;;;;6.50;93.30;;;;;;5100024;28;19908;-59
2022/01/18 02:01:23;;;;;;;;;;;6.50;93.30;;;;;;5062315;28;19991;-60
2022/01/18 02:03:49;;;;;;;;;;;6.50;93.30;;;;;;5068187;28;19913;-60
2022/01/18 02:06:14;;;;;;;;;;;6.40;93.20;;;;;;5080649;28;19970;-60
2022/01/18 02:08:40;;;;;;;;;;;6.40;93.30;;;;;;5067598;28;20237;-60
2022/01/18 02:11:05;;;;;;;;;;;6.40;93.30;;;;;;5080171;28;19920;-60
2022/01/18 02:13:32;;;;;;;;;;;6.40;93.30;;;;;;5066104;28;19916;-59
2022/01/18 02:23:55;;;;;;;;;;;6.30;93.30;;;;;;5082016;28;20012;-60
2022/01/18 02:26:20;;;;;;;;;;;6.30;93.40;;;;;;5080294;28;20587;-60
2022/01/18 02:28:46;;;;;;;;;;;6.30;93.40;;;;;;5087827;28;19923;-60
2022/01/18 02:31:11;;;;;;;;;;;6.30;93.40;;;;;;5068997;28;19985;-60
2022/01/18 02:33:37;;;;;;;;;;;6.30;93.40;;;;;;5065648;28;19912;-60
2022/01/18 02:36:05;;;;;;;;;;;6.20;93.40;;;;;;5074770;28;19948;-60
2022/01/18 02:38:31;;;;;;;;;;;6.30;93.40;;;;;;5087368;28;19912;-60
2022/01/18 02:40:57;;;;;;;;;;;6.20;93.30;;;;;;5075254;28;19913;-60
2022/01/18 02:46:07;;;;;;;;;;;6.20;93.30;;;;;;5080779;28;20098;-60
2022/01/18 02:48:32;;;;;;;;;;;6.20;93.30;;;;;;5067535;28;20045;-60
2022/01/18 02:50:58;;;;;;;;;;;6.20;93.30;;;;;;5082498;28;19960;-60
2022/01/18 02:53:23;;;;;;;;;;;6.20;93.30;;;;;;5080398;28;19919;-60
2022/01/18 02:55:52;;;;;;;;;;;6.20;93.30;;;;;;5066047;28;19912;-60
2022/01/18 02:58:26;;;;;;;;;;;6.20;93.30;;;;;;5083728;28;19964;-60
2022/01/18 03:03:29;;;;;;;;;;;6.10;93.30;;;;;;5078851;28;20928;-60
2022/01/18 03:05:55;;;;;;;;;;;6.10;93.30;;;;;;5087482;28;19962;-60
2022/01/18 03:08:21;;;;;;;;;;;6.10;93.30;;;;;;5083815;28;19915;-60
2022/01/18 03:10:46;;;;;;;;;;;6.10;93.30;;;;;;5075383;28;19923;-60
2022/01/18 03:13:12;;;;;;;;;;;6.10;93.30;;;;;;5068863;28;20347;-60
2022/01/18 03:15:37;;;;;;;;;;;6.10;93.30;;;;;;5074088;28;19938;-60
2022/01/18 03:18:03;;;;;;;;;;;6.10;93.40;;;;;;5106594;28;19956;-60
2022/01/18 03:20:29;;;;;;;;;;;6.10;93.40;;;;;;5064800;28;20000;-60
2022/01/18 03:22:54;;;;;;;;;;;6.00;93.40;;;;;;5074023;28;19995;-60
2022/01/18 03:25:40;;;;;;;;;;;6.00;93.40;;;;;;5083345;28;19908;-60
2022/01/18 03:28:07;;;;;;;;;;;6.00;93.40;;;;;;5065875;28;19917;-60
2022/01/18 03:30:38;;;;;;;;;;;5.90;93.40;;;;;;5083725;28;19930;-60
2022/01/18 03:33:04;;;;;;;;;;;6.00;93.40;;;;;;5086927;28;19919;-60
2022/01/18 03:35:30;;;;;;;;;;;5.90;93.30;;;;;;5067891;28;19908;-60
2022/01/18 03:37:55;;;;;;;;;;;5.90;93.30;;;;;;5072385;28;20393;-60
2022/01/18 03:40:21;;;;;;;;;;;5.90;93.40;;;;;;5064973;28;19916;-60
2022/01/18 03:42:47;;;;;;;;;;;5.90;93.40;;;;;;5085895;28;20110;-60
2022/01/18 03:45:13;;;;;;;;;;;5.90;93.30;;;;;;5074347;28;19908;-60
2022/01/18 03:47:39;;;;;;;;;;;5.90;93.30;;;;;;5083324;28;19912;-60
2022/01/18 03:50:04;;;;;;;;;;;5.90;93.30;;;;;;5070824;28;19916;-60
2022/01/18 03:52:30;;;;;;;;;;;5.90;93.30;;;;;;5065900;28;19919;-60
2022/01/18 03:54:55;;;;;;;;;;;5.80;93.30;;;;;;5071918;28;19908;-60
2022/01/18 03:57:21;;;;;;;;;;;5.80;93.30;;;;;;5074121;28;19923;-60
2022/01/18 03:59:46;;;;;;;;;;;5.80;93.40;;;;;;5070922;28;20579;-60
2022/01/18 04:02:12;;;;;;;;;;;5.80;93.40;;;;;;5085901;28;19963;-60
2022/01/18 04:04:37;;;;;;;;;;;5.80;93.30;;;;;;5083358;28;20265;-60
2022/01/18 04:07:03;;;;;;;;;;;5.80;93.40;;;;;;5084806;28;20325;-60
2022/01/18 04:09:29;;;;;;;;;;;5.80;93.40;;;;;;5065334;28;19974;-60
2022/01/18 04:11:54;;;;;;;;;;;5.80;93.30;;;;;;5086063;28;19965;-60
2022/01/18 04:14:20;;;;;;;;;;;5.70;93.30;;;;;;5076762;28;19956;-60
2022/01/18 04:27:26;;;;;;;;;;;5.70;93.20;;;;;;5083718;28;19919;-60
2022/01/18 04:29:51;;;;;;;;;;;5.70;93.20;;;;;;5068516;28;19913;-60
2022/01/18 04:32:17;;;;;;;;;;;5.70;93.20;;;;;;5069078;28;19913;-60
2022/01/18 04:34:42;;;;;;;;;;;5.70;93.30;;;;;;5067468;28;19958;-60
2022/01/18 04:37:08;;;;;;;;;;;5.70;93.20;;;;;;5086700;28;20395;-60
2022/01/18 04:39:39;;;;;;;;;;;5.70;93.30;;;;;;5064240;28;19916;-60
2022/01/18 04:42:15;;;;;;;;;;;5.60;93.20;;;;;;5068879;28;19918;-60
2022/01/18 04:50:09;;;;;;;;;;;5.60;93.30;;;;;;5076378;28;19966;-60
2022/01/18 04:52:34;;;;;;;;;;;5.60;93.20;;;;;;5065901;28;19916;-61
2022/01/18 04:55:02;;;;;;;;;;;5.60;93.30;;;;;;5075373;28;19999;-60
2022/01/18 05:00:12;;;;;;;;;;;5.60;93.20;;;;;;5082860;28;19922;-60
2022/01/18 05:02:37;;;;;;;;;;;5.60;93.30;;;;;;5069288;28;19999;-60
2022/01/18 05:05:03;;;;;;;;;;;5.60;93.30;;;;;;5088083;28;20416;-60
2022/01/18 05:07:29;;;;;;;;;;;5.50;93.20;;;;;;5083907;28;19920;-60
2022/01/18 05:09:54;;;;;;;;;;;5.50;93.20;;;;;;5080455;28;19931;-60
2022/01/18 05:12:35;;;;;;;;;;;5.50;93.20;;;;;;5079949;28;19959;-60
2022/01/18 05:15:07;;;;;;;;;;;5.50;93.20;;;;;;5078582;28;19912;-60
2022/01/18 05:17:42;;;;;;;;;;;5.50;93.20;;;;;;5062063;28;19924;-62
2022/01/18 05:20:38;;;;;;;;;;;5.50;93.20;;;;;;5073501;28;19978;-61
2022/01/18 05:23:01;;;;;;;;;;;5.50;93.20;;;;;;5084502;28;20028;-60
2022/01/18 05:25:28;;;;;;;;;;;5.50;93.20;;;;;;5079887;28;19908;-60
2022/01/18 05:27:55;;;;;;;;;;;5.50;93.20;;;;;;5085063;28;19924;-60
2022/01/18 05:30:20;;;;;;;;;;;5.50;93.20;;;;;;5069271;28;20256;-63
2022/01/18 05:32:46;;;;;;;;;;;5.50;93.20;;;;;;5066930;28;19913;-60
2022/01/18 05:35:11;;;;;;;;;;;5.50;93.20;;;;;;5068387;28;20351;-60
2022/01/18 05:37:37;;;;;;;;;;;5.40;93.20;;;;;;5058555;28;19920;-60
2022/01/18 05:40:02;;;;;;;;;;;5.40;93.30;;;;;;5083145;28;19915;-60
2022/01/18 05:42:28;;;;;;;;;;;5.40;93.20;;;;;;5079976;28;19923;-60
2022/01/18 05:44:53;;;;;;;;;;;5.50;93.30;;;;;;5071822;28;19958;-60
2022/01/18 05:47:18;;;;;;;;;;;5.40;93.30;;;;;;5060021;28;20018;-60
2022/01/18 05:49:44;;;;;;;;;;;5.40;93.30;;;;;;5074687;28;19916;-60
2022/01/18 05:52:09;;;;;;;;;;;5.40;93.30;;;;;;5065320;28;19913;-60
2022/01/18 05:54:35;;;;;;;;;;;5.40;93.40;;;;;;5068943;28;20446;-60
2022/01/18 05:57:00;;;;;;;;;;;5.40;93.40;;;;;;5070344;28;19919;-60
2022/01/18 05:59:34;;;;;;;;;;;5.40;93.40;;;;;;5067725;28;20645;-60
2022/01/18 06:02:03;;;;;;;;;;;5.40;93.40;;;;;;5085309;28;19920;-60
2022/01/18 06:07:12;;;;;;;;;;;5.40;93.50;;;;;;5081235;28;19943;-60
2022/01/18 06:09:38;;;;;;;;;;;5.40;93.50;;;;;;5076457;28;19909;-60
2022/01/18 06:12:03;;;;;;;;;;;5.40;93.50;;;;;;5058835;28;19963;-60
2022/01/18 06:14:29;;;;;;;;;;;5.40;93.60;;;;;;5067487;28;19917;-60
2022/01/18 06:16:54;;;;;;;;;;;5.40;93.60;;;;;;5063857;28;19908;-60
2022/01/18 06:19:20;;;;;;;;;;;5.40;93.50;;;;;;5075839;28;19916;-60
2022/01/18 06:21:45;;;;;;;;;;;5.30;93.60;;;;;;5069593;28;19955;-60
2022/01/18 06:24:11;;;;;;;;;;;5.30;93.60;;;;;;5069763;28;20326;-60
2022/01/18 06:26:37;;;;;;;;;;;5.30;93.50;;;;;;5078497;28;20011;-60
2022/01/18 06:29:03;;;;;;;;;;;5.30;93.60;;;;;;5078008;28;20002;-60
2022/01/18 06:31:28;;;;;;;;;;;5.30;93.60;;;;;;5070442;28;20280;-60
2022/01/18 06:33:53;;;;;;;;;;;5.30;93.60;;;;;;5075044;28;20334;-60
2022/01/18 06:36:19;;;;;;;;;;;5.30;93.60;;;;;;5064969;28;19916;-60
2022/01/18 06:38:44;;;;;;;;;;;5.30;93.60;;;;;;5083856;28;20370;-60
2022/01/18 06:41:11;;;;;;;;;;;5.30;93.60;;;;;;5067014;28;19912;-60
2022/01/18 06:43:36;;;;;;;;;;;5.30;93.50;;;;;;5074190;28;19918;-60
2022/01/18 06:46:02;;;;;;;;;;;5.30;93.50;;;;;;5068689;28;19908;-60
2022/01/18 06:48:27;;;;;;;;;;;5.20;93.50;;;;;;5070841;28;19915;-60
2022/01/18 06:50:53;;;;;;;;;;;5.20;93.50;;;;;;5084567;28;19923;-60
2022/01/18 06:53:18;;;;;;;;;;;5.20;93.50;;;;;;5078752;28;20291;-60
2022/01/18 06:55:44;;;;;;;;;;;5.20;93.50;;;;;;5063736;28;19916;-60
2022/01/18 06:58:10;;;;;;;;;;;5.20;93.50;;;;;;5087419;28;19962;-60
2022/01/18 07:00:35;;;;;;;;;;;5.20;93.60;;;;;;5069764;28;20271;-61
2022/01/18 07:03:01;;;;;;;;;;;5.20;93.60;;;;;;5045051;28;19946;-60
2022/01/18 07:05:26;;;;;;;;;;;5.20;93.70;;;;;;5048698;28;20287;-60
2022/01/18 07:07:52;;;;;;;;;;;5.20;93.70;;;;;;5058840;28;19915;-60
2022/01/18 07:10:17;;;;;;;;;;;5.20;93.80;;;;;;5053161;28;19916;-60
2022/01/18 07:12:43;;;;;;;;;;;5.20;93.70;;;;;;5072549;28;19909;-60
2022/01/18 07:15:08;;;;;;;;;;;5.10;93.80;;;;;;5057841;28;19927;-60
2022/01/18 07:17:34;;;;;;;;;;;5.20;93.80;;;;;;5063445;28;19943;-60
2022/01/18 07:20:00;;;;;;;;;;;5.10;93.80;;;;;;5061700;28;19917;-60
2022/01/18 07:22:25;;;;;;;;;;;5.10;93.90;;;;;;5059832;28;19959;-60
2022/01/18 07:24:56;;;;;;;;;;;5.10;93.90;;;;;;5064935;28;19908;-60
2022/01/18 07:27:21;;;;;;;;;;;5.10;93.90;;;;;;5070367;28;19912;-60
2022/01/18 07:29:47;;;;;;;;;;;5.10;93.90;;;;;;5066343;28;19922;-60
2022/01/18 07:32:12;;;;;;;;;;;5.10;93.90;;;;;;5084345;28;19916;-60
2022/01/18 07:34:46;;;;;;;;;;;5.10;94.00;;;;;;5067107;28;20387;-60
2022/01/18 07:37:11;;;;;;;;;;;5.10;94.00;;;;;;5082218;28;20304;-60
2022/01/18 07:39:37;;;;;;;;;;;5.10;94.00;;;;;;5067800;28;19912;-60
2022/01/18 07:42:02;;;;;;;;;;;5.10;93.90;;;;;;5085065;28;19921;-60
2022/01/18 07:44:29;;;;;;;;;;;5.10;93.90;;;;;;5068349;28;19924;-60
2022/01/18 07:46:54;;;;;;;;;;;5.20;94.00;;;;;;5071248;28;19952;-60
2022/01/18 07:49:20;;;;;;;;;;;5.00;94.00;;;;;;5059137;28;20336;-60
2022/01/18 07:51:45;;;;;;;;;;;5.10;94.10;;;;;;5064415;28;19917;-60
2022/01/18 07:54:11;;;;;;;;;;;5.00;94.10;;;;;;5057715;28;19970;-60
2022/01/18 07:56:36;;;;;;;;;;;5.20;94.10;;;;;;5045563;28;20015;-60
2022/01/18 07:59:02;;;;;;;;;;;5.10;94.10;;;;;;5051187;28;19986;-60
2022/01/18 08:01:27;;;;;;;;;;;5.30;94.20;;;;;;5056622;28;19985;-60
2022/01/18 08:03:52;;;;;;;;;;;5.10;94.10;;;;;;5040749;28;20163;-60
2022/01/18 08:06:18;;;;;;;;;;;5.20;94.20;;;;;;5062540;28;19913;-60
2022/01/18 08:08:43;;;;;;;;;;;5.10;94.30;;;;;;5057272;28;19919;-60
2022/01/18 08:11:09;;;;;;;;;;;5.10;94.30;;;;;;5056185;28;19916;-60
2022/01/18 08:13:40;;;;;;;;;;;5.20;94.30;;;;;;5060092;28;20656;-60
2022/01/18 08:19:03;;;;;;;;;;;5.20;94.30;;;;;;5029710;28;20005;-60
2022/01/18 08:21:29;;;;;;;;;;;5.20;94.40;;;;;;5060601;28;19947;-60
2022/01/18 08:23:54;;;;;;;;;;;5.20;94.50;;;;;;5040693;28;19913;-60
2022/01/18 08:26:20;;;;;;;;;;;5.20;94.60;;;;;;5060815;28;20011;-60
2022/01/18 08:28:45;;;;;;;;;;;5.20;94.70;;;;;;5048939;28;19916;-60
2022/01/18 08:31:11;;;;;;;;;;;5.20;94.80;;;;;;5050831;28;19979;-60
2022/01/18 08:33:36;;;;;;;;;;;5.20;94.90;;;;;;5061797;28;19917;-60
2022/01/18 08:36:03;;;;;;;;;;;5.30;94.90;;;;;;5058638;28;20336;-61
2022/01/18 08:38:29;;;;;;;;;;;5.20;94.80;;;;;;5067699;28;20011;-60
2022/01/18 08:40:56;;;;;;;;;;;5.20;94.80;;;;;;5071473;28;20373;-60
2022/01/18 08:43:22;;;;;;;;;;;5.30;94.80;;;;;;5057379;28;20049;-60
2022/01/18 08:45:47;;;;;;;;;;;5.20;94.80;;;;;;5057423;28;19948;-61
2022/01/18 08:48:12;;;;;;;;;;;5.30;94.80;;;;;;5047466;28;19920;-60
2022/01/18 08:50:38;;;;;;;;;;;5.30;94.80;;;;;;5055071;28;19924;-60
2022/01/18 08:53:03;;;;;;;;;;;5.30;94.80;;;;;;5047848;28;19928;-60
2022/01/18 08:55:29;;;;;;;;;;;5.30;94.80;;;;;;5070138;28;19916;-61
2022/01/18 08:57:55;;;;;;;;;;;5.30;94.90;;;;;;5061246;28;19919;-61
2022/01/18 09:00:20;;;;;;;;;;;5.30;95.00;;;;;;5073239;28;20454;-60
2022/01/18 09:02:47;;;;;;;;;;;5.30;95.00;;;;;;5069321;28;19932;-61
2022/01/18 09:05:13;;;;;;;;;;;5.40;95.10;;;;;;5075809;28;20352;-60
2022/01/18 09:07:39;;;;;;;;;;;5.40;95.00;;;;;;5075627;28;19909;-60
2022/01/18 09:10:10;;;;;;;;;;;5.40;95.00;;;;;;5073260;28;19935;-60
2022/01/18 09:12:35;;;;;;;;;;;5.40;95.00;;;;;;5058051;28;19943;-60
2022/01/18 09:15:01;;;;;;;;;;;5.40;95.00;;;;;;5070523;28;20025;-61
2022/01/18 09:17:30;;;;;;;;;;;5.40;95.00;;;;;;5082162;28;19912;-61
2022/01/18 09:19:56;;;;;;;;;;;5.50;95.00;;;;;;5076363;28;19912;-60
2022/01/18 09:22:22;;;;;;;;;;;5.50;95.20;;;;;;5061714;28;19917;-60
2022/01/18 09:24:47;;;;;;;;;;;5.50;95.30;;;;;;5084204;28;19920;-60
2022/01/18 09:27:12;;;;;;;;;;;5.50;95.30;;;;;;5073192;28;19912;-60
2022/01/18 09:29:40;;;;;;;;;;;5.50;95.40;;;;;;5083795;28;19951;-60
2022/01/18 09:32:05;;;;;;;;;;;5.60;95.40;;;;;;5056167;28;20307;-60
2022/01/18 09:34:31;;;;;;;;;;;5.60;95.40;;;;;;5059611;28;19919;-60
2022/01/18 09:36:56;;;;;;;;;;;5.60;95.40;;;;;;5063557;28;19912;-60
2022/01/18 09:39:23;;;;;;;;;;;5.60;95.40;;;;;;5078829;28;19978;-60
2022/01/18 09:41:51;;;;;;;;;;;5.60;95.40;;;;;;5064020;28;19986;-61
2022/01/18 09:44:17;;;;;;;;;;;5.70;95.50;;;;;;5082266;28;19936;-60
2022/01/18 09:46:42;;;;;;;;;;;5.70;95.50;;;;;;5068198;28;19912;-60
2022/01/18 09:49:08;;;;;;;;;;;5.70;95.60;;;;;;5073703;28;19912;-60
2022/01/18 09:51:33;;;;;;;;;;;5.70;95.70;;;;;;5068629;28;19970;-60
2022/01/18 09:53:59;;;;;;;;;;;5.70;95.70;;;;;;5071742;28;19913;-60
2022/01/18 09:56:24;;;;;;;;;;;5.70;95.70;;;;;;5069125;28;19913;-60
2022/01/18 09:58:50;;;;;;;;;;;5.80;95.70;;;;;;5056111;28;19912;-60
2022/01/18 10:01:15;;;;;;;;;;;5.80;95.70;;;;;;5079770;28;20309;-61
2022/01/18 10:03:41;;;;;;;;;;;5.80;95.60;;;;;;5078649;28;19912;-60
2022/01/18 10:06:07;;;;;;;;;;;5.80;95.70;;;;;;5079001;28;19962;-60
2022/01/18 10:08:33;;;;;;;;;;;5.80;95.70;;;;;;5101901;28;19951;-61
2022/01/18 10:11:02;;;;;;;;;;;5.80;95.70;;;;;;5077311;28;19912;-61
2022/01/18 10:13:27;;;;;;;;;;;5.80;95.60;;;;;;5082553;28;19923;-60
2022/01/18 10:16:12;;;;;;;;;;;5.90;95.60;;;;;;5088053;28;19915;-60
2022/01/18 10:18:41;;;;;;;;;;;5.90;95.60;;;;;;5081058;28;19908;-60
2022/01/18 10:21:08;;;;;;;;;;;5.90;95.60;;;;;;5089304;28;19939;-60
2022/01/18 10:23:33;;;;;;;;;;;5.90;95.70;;;;;;5087723;28;20000;-61
2022/01/18 10:26:00;;;;;;;;;;;5.90;95.60;;;;;;5082423;28;19911;-60
2022/01/18 10:28:29;;;;;;;;;;;5.90;95.60;;;;;;5068802;28;19951;-60
2022/01/18 10:30:55;;;;;;;;;;;6.00;95.70;;;;;;5068678;28;19916;-60
2022/01/18 10:33:27;;;;;;;;;;;6.00;95.70;;;;;;5082622;28;20281;-60
2022/01/18 10:36:02;;;;;;;;;;;6.00;95.70;;;;;;5079312;28;19915;-60
2022/01/18 10:38:27;;;;;;;;;;;6.00;95.70;;;;;;5106295;28;19970;-60
2022/01/18 10:40:53;;;;;;;;;;;6.10;95.70;;;;;;5071483;28;19912;-60
2022/01/18 10:43:22;;;;;;;;;;;6.10;95.70;;;;;;5076250;28;19911;-60
2022/01/18 10:45:47;;;;;;;;;;;6.10;95.60;;;;;;5089079;28;19916;-61
2022/01/18 10:48:14;;;;;;;;;;;6.10;95.60;;;;;;5079442;28;20320;-60
2022/01/18 10:50:41;;;;;;;;;;;6.10;95.60;;;;;;5067444;28;19924;-60
2022/01/18 10:53:13;;;;;;;;;;;6.10;95.60;;;;;;5087123;28;20383;-59
2022/01/18 10:55:38;;;;;;;;;;;6.10;95.60;;;;;;5070106;28;19912;-60
2022/01/18 10:58:11;;;;;;;;;;;6.20;95.60;;;;;;5088614;28;19968;-60
2022/01/18 11:00:38;;;;;;;;;;;6.20;95.50;;;;;;5076922;28;19911;-60
2022/01/18 11:03:03;;;;;;;;;;;6.20;95.60;;;;;;5075323;28;20319;-61
2022/01/18 11:05:30;;;;;;;;;;;6.20;95.60;;;;;;5080251;28;19954;-60
2022/01/18 11:07:56;;;;;;;;;;;6.20;95.50;;;;;;5073061;28;19994;-60
2022/01/18 11:10:22;;;;;;;;;;;6.20;95.50;;;;;;5084125;28;19999;-60
2022/01/18 11:12:48;;;;;;;;;;;6.20;95.40;;;;;;5069469;28;19922;-60
2022/01/18 11:15:18;;;;;;;;;;;6.30;95.40;;;;;;5101109;28;19919;-60
2022/01/18 11:17:50;;;;;;;;;;;6.30;95.40;;;;;;5080756;28;19955;-60
2022/01/18 11:20:15;;;;;;;;;;;6.30;95.30;;;;;;5109860;28;19912;-61
2022/01/18 11:22:41;;;;;;;;;;;6.30;95.30;;;;;;5070046;28;19996;-60
2022/01/18 11:25:06;;;;;;;;;;;6.40;95.30;;;;;;5064368;28;19923;-61
2022/01/18 11:27:35;;;;;;;;;;;6.40;95.30;;;;;;5081092;28;20298;-61
2022/01/18 11:30:00;;;;;;;;;;;6.40;95.20;;;;;;5072884;28;19966;-61
2022/01/18 11:32:27;;;;;;;;;;;6.40;95.30;;;;;;5069975;28;20344;-61
2022/01/18 11:35:25;;;;;;;;;;;6.60;95.30;;;;;;5067604;28;19915;-61
2022/01/18 11:37:57;;;;;;;;;;;6.50;95.20;;;;;;5059685;28;19912;-60
2022/01/18 11:40:23;;;;;;;;;;;6.50;95.10;;;;;;5083680;28;19969;-60
2022/01/18 11:42:53;;;;;;;;;;;6.60;95.00;;;;;;5082259;28;20272;-61
2022/01/18 11:45:24;;;;;;;;;;;6.60;95.00;;;;;;5081953;28;20391;-61
2022/01/18 11:48:16;;;;;;;;;;;6.60;94.90;;;;;;5100619;28;20007;-61
2022/01/18 11:50:50;;;;;;;;;;;6.70;94.90;;;;;;5086541;28;20264;-61
2022/01/18 11:56:08;;;;;;;;;;;6.70;94.90;;;;;;5099088;27;19912;-61
2022/01/18 11:58:34;;;;;;;;;;;6.70;94.90;;;;;;5078991;28;19920;-60
2022/01/18 12:01:00;;;;;;;;;;;6.80;95.00;;;;;;5067013;28;20274;-60
2022/01/18 12:03:27;;;;;;;;;;;6.70;94.90;;;;;;5097975;28;19916;-60
2022/01/18 12:05:53;;;;;;;;;;;6.70;94.90;;;;;;5097097;28;19937;-61
2022/01/18 12:08:28;;;;;;;;;;;6.90;94.90;;;;;;5082374;28;20053;-61
2022/01/18 12:10:53;;;;;;;;;;;6.80;94.80;;;;;;5103735;27;19969;-60
2022/01/18 12:13:29;;;;;;;;;;;6.80;94.70;;;;;;5080689;28;19966;-60
2022/01/18 12:15:56;;;;;;;;;;;6.80;94.60;;;;;;5074729;28;19915;-61
2022/01/18 12:18:23;;;;;;;;;;;6.80;94.50;;;;;;5065048;28;20115;-61
2022/01/18 12:20:49;;;;;;;;;;;6.90;94.50;;;;;;5078323;28;19959;-61
2022/01/18 12:23:18;;;;;;;;;;;6.90;94.40;;;;;;5066611;28;19973;-61
2022/01/18 12:25:54;;;;;;;;;;;6.90;94.40;;;;;;5100464;28;19912;-61
2022/01/18 12:34:24;;;;;;;;;;;7.00;94.30;;;;;;5095336;28;19912;-61
2022/01/18 12:36:50;;;;;;;;;;;7.00;94.40;;;;;;5083246;28;19981;-60
2022/01/18 12:39:15;;;;;;;;;;;7.00;94.30;;;;;;5067734;28;19967;-60
2022/01/18 12:41:41;;;;;;;;;;;7.00;94.20;;;;;;5077279;28;20261;-61
2022/01/18 12:44:22;;;;;;;;;;;7.00;94.10;;;;;;5085754;28;19935;-61
2022/01/18 12:46:50;;;;;;;;;;;7.00;94.00;;;;;;5095979;28;19912;-61
2022/01/18 12:49:16;;;;;;;;;;;7.10;94.00;;;;;;5085702;28;19912;-61
2022/01/18 12:51:41;;;;;;;;;;;7.10;94.00;;;;;;5073736;28;19989;-60
2022/01/18 12:54:07;;;;;;;;;;;7.10;93.90;;;;;;5095869;28;20010;-61
2022/01/18 12:56:32;;;;;;;;;;;7.10;93.90;;;;;;5084604;27;19960;-60
2022/01/18 12:59:00;;;;;;;;;;;7.10;93.90;;;;;;5066644;28;20428;-61
2022/01/18 13:01:28;;;;;;;;;;;7.10;93.90;;;;;;5102092;28;19927;-61
2022/01/18 13:03:54;;;;;;;;;;;7.10;93.80;;;;;;5081253;28;19964;-61
2022/01/18 13:06:21;;;;;;;;;;;7.20;93.70;;;;;;5082507;28;19912;-61
2022/01/18 13:08:53;;;;;;;;;;;7.10;93.60;;;;;;5082196;28;20238;-61
2022/01/18 13:11:20;;;;;;;;;;;7.20;93.60;;;;;;5086937;28;20172;-61
2022/01/18 13:13:53;;;;;;;;;;;7.20;93.60;;;;;;5067357;28;20291;-61
2022/01/18 13:24:45;;;;;;;;;;;7.20;93.30;;;;;;5075479;28;19962;-60
2022/01/18 13:27:19;;;;;;;;;;;7.20;93.20;;;;;;5092551;27;20343;-60
2022/01/18 13:29:47;;;;;;;;;;;7.20;93.10;;;;;;5103304;28;19939;-61
2022/01/18 13:32:17;;;;;;;;;;;7.20;93.10;;;;;;5072803;28;19935;-60
2022/01/18 13:34:43;;;;;;;;;;;7.40;93.10;;;;;;5101422;27;19965;-61
2022/01/18 13:37:09;;;;;;;;;;;7.20;93.00;;;;;;5076022;28;20339;-60
2022/01/18 13:39:37;;;;;;;;;;;7.20;93.00;;;;;;5078044;28;19927;-60
2022/01/18 13:42:02;;;;;;;;;;;7.30;93.00;;;;;;5074135;28;19969;-60
2022/01/18 13:44:28;;;;;;;;;;;7.30;93.00;;;;;;5092590;28;20006;-61
2022/01/18 13:46:54;;;;;;;;;;;7.30;93.10;;;;;;5091026;27;19927;-60
2022/01/18 13:49:24;;;;;;;;;;;7.30;93.00;;;;;;5095670;28;19912;-61
2022/01/18 13:52:01;;;;;;;;;;;7.30;92.90;;;;;;5100496;28;20456;-61
2022/01/18 13:54:28;;;;;;;;;;;7.30;92.90;;;;;;5099628;28;19916;-60
2022/01/18 13:56:54;;;;;;;;;;;7.30;92.90;;;;;;5100661;28;19968;-61
2022/01/18 13:59:24;;;;;;;;;;;7.30;92.90;;;;;;5078122;28;19912;-60
2022/01/18 14:01:49;;;;;;;;;;;7.30;92.80;;;;;;5061835;28;19935;-61
2022/01/18 14:04:19;;;;;;;;;;;7.30;92.90;;;;;;5061953;28;19920;-61
2022/01/18 14:06:45;;;;;;;;;;;7.40;92.70;;;;;;5062589;28;19946;-60
2022/01/18 14:09:11;;;;;;;;;;;7.40;92.70;;;;;;5096632;28;20392;-61
2022/01/18 14:11:36;;;;;;;;;;;7.40;92.60;;;;;;5082175;28;19920;-61
2022/01/18 14:14:15;;;;;;;;;;;7.30;92.60;;;;;;5076431;28;20196;-63
2022/01/18 14:16:45;;;;;;;;;;;7.40;92.50;;;;;;5082642;28;19916;-59
2022/01/18 14:19:10;;;;;;;;;;;7.40;92.40;;;;;;5077681;28;19939;-58
2022/01/18 14:21:49;;;;;;;;;;;7.40;92.40;;;;;;5079161;28;19924;-59
2022/01/18 14:24:16;;;;;;;;;;;7.40;92.40;;;;;;5068017;28;19912;-60
2022/01/18 14:26:51;;;;;;;;;;;7.40;92.40;;;;;;5079063;28;20046;-60
2022/01/18 14:29:17;;;;;;;;;;;7.40;92.40;;;;;;5087791;28;19931;-61
2022/01/18 14:31:42;;;;;;;;;;;7.40;92.30;;;;;;5072494;28;19924;-61
2022/01/18 14:34:10;;;;;;;;;;;7.40;92.60;;;;;;5073016;28;19919;-61
2022/01/18 14:36:47;;;;;;;;;;;7.40;92.30;;;;;;5079588;28;19923;-60
2022/01/18 14:39:13;;;;;;;;;;;7.60;92.30;;;;;;5077661;28;19920;-61
2022/01/18 14:41:38;;;;;;;;;;;7.40;92.30;;;;;;5061373;28;19930;-60
2022/01/18 14:44:09;;;;;;;;;;;7.40;92.30;;;;;;5066078;28;19963;-60
2022/01/18 14:46:57;;;;;;;;;;;7.20;92.20;;;;;;5076545;28;20336;-61
2022/01/18 14:49:22;;;;;;;;;;;7.40;92.20;;;;;;5087824;28;20411;-61
2022/01/18 14:51:48;;;;;;;;;;;7.40;92.20;;;;;;5088764;28;20018;-60
2022/01/18 14:54:13;;;;;;;;;;;7.40;92.20;;;;;;5057608;28;20379;-60
2022/01/18 14:56:39;;;;;;;;;;;7.40;92.20;;;;;;5095047;28;19963;-61
2022/01/18 14:59:04;;;;;;;;;;;7.40;92.20;;;;;;5075723;28;21439;-61
2022/01/18 15:01:30;;;;;;;;;;;7.40;92.10;;;;;;5080390;28;19916;-60
2022/01/18 15:03:55;;;;;;;;;;;7.40;92.00;;;;;;5086215;28;19943;-61
2022/01/18 15:06:21;;;;;;;;;;;7.50;92.00;;;;;;5067323;28;19920;-61
2022/01/18 15:08:46;;;;;;;;;;;7.50;92.00;;;;;;5074179;28;19964;-60
2022/01/18 15:11:12;;;;;;;;;;;7.50;92.00;;;;;;5069373;28;20346;-61
2022/01/18 15:13:37;;;;;;;;;;;7.50;91.90;;;;;;5071634;28;19979;-61
2022/01/18 15:16:03;;;;;;;;;;;7.50;91.90;;;;;;5069541;28;19924;-60
2022/01/18 15:18:28;;;;;;;;;;;7.50;91.90;;;;;;5070042;28;21090;-61
2022/01/18 15:20:54;;;;;;;;;;;7.50;91.90;;;;;;5065418;28;20373;-60
2022/01/18 15:23:19;;;;;;;;;;;7.50;91.80;;;;;;5077641;28;19939;-61
2022/01/18 15:25:45;;;;;;;;;;;7.50;91.80;;;;;;5078341;28;19917;-60
2022/01/18 15:28:10;;;;;;;;;;;7.50;91.90;;;;;;5063848;28;19915;-61
2022/01/18 15:30:36;;;;;;;;;;;7.50;91.80;;;;;;5071717;28;20267;-60
2022/01/18 15:33:05;;;;;;;;;;;7.50;91.90;;;;;;5071967;28;19916;-61
2022/01/18 15:35:31;;;;;;;;;;;7.50;91.80;;;;;;5079209;28;19955;-61
2022/01/18 15:37:56;;;;;;;;;;;7.50;91.70;;;;;;5065599;28;19966;-61
2022/01/18 15:40:22;;;;;;;;;;;7.60;91.90;;;;;;5069612;28;20165;-61
2022/01/18 15:42:48;;;;;;;;;;;7.60;91.90;;;;;;5072084;28;19927;-60
2022/01/18 15:45:13;;;;;;;;;;;7.60;91.80;;;;;;5088462;27;19931;-61
2022/01/18 15:47:39;;;;;;;;;;;7.60;91.80;;;;;;5064239;28;19916;-60
2022/01/18 15:50:05;;;;;;;;;;;7.60;91.70;;;;;;5064422;28;20271;-61
2022/01/18 15:52:30;;;;;;;;;;;7.60;91.80;;;;;;5083907;28;19928;-61
2022/01/18 15:54:56;;;;;;;;;;;7.60;91.70;;;;;;5067283;28;19927;-60
2022/01/18 15:57:21;;;;;;;;;;;7.60;91.70;;;;;;5083557;28;20019;-60
2022/01/18 15:59:48;;;;;;;;;;;7.60;91.80;;;;;;5071034;28;19917;-61
2022/01/18 16:02:13;;;;;;;;;;;7.60;91.70;;;;;;5075268;28;20074;-61
2022/01/18 16:04:39;;;;;;;;;;;7.60;91.90;;;;;;5066148;28;20283;-61